Clear Creek, WV (25044)

5:05 PM EDT on March 29, 2017 (GMT -0400)
F.I.T. - Oyler Ave. | | Change Station

Elev 1988 ft 37.99 °N, 81.15 °W | Updated 7 seconds ago

Partly Cloudy
Partly Cloudy
59.8 °F
Feels Like 59.8 °F
N
0.0
Wind Variable Wind from South
Gusts 0.0 mph

Today
High -- | Low -- °F
--% Chance of Precip.
Yesterday
High -- | Low -- °F
Precip. -- in
Pressure 30.08 in
Visibility 10.0 miles
Clouds Clear
Dew Point 49 °F
Humidity 67%
Rainfall 0.05 in
Snow Depth Not available.
7:14 AM 7:45 PM
Waxing Crescent, 4% visible
METAR KBKW 292051Z AUTO 36011KT 10SM CLR 17/07 A3011 RMK AO2 SLP185 T01670072 55005
Pressure 30.08 in
Visibility 10.0 miles
Clouds Clear
Dew Point 49 °F
Humidity 67%
Rainfall 0.05 in
Snow Depth Not available.
7:14 AM 7:45 PM
Waxing Crescent, 4% visible
METAR KBKW 292051Z AUTO 36011KT 10SM CLR 17/07 A3011 RMK AO2 SLP185 T01670072 55005

Get Severe Weather Alerts

Thanks for signing up!

Be on the lookout for a verification email in your inbox.

You'll start receiving the daily forecast at 8 AM.

×

10-Day Weather Forecast

Almanac

Astronomy

Mar. 29, 2017 Rise Set
Actual Time
Civil Twilight
Nautical Twilight
Astronomical Twilight
Moon
Length of Visible Light
Length of Day
Tomorrow will be .
, % of the Moon is Illuminated

Today's Extremes

State Highs State Lows

Community

WunderPhotos

Upload Photos

1,962,540 photos uploaded!

WunderBlog® & News

Nearby

Air Quality

  Air Quality AQ Index Pollutant
Not available.

Snow Depth

Station Depth Elevation

Earthquake Activity

City Distance Mag. Time & Date
Minimum magnitude displayed is 2.5.

Earthquake Activity

City Distance Mag. Time & Date
Minimum magnitude displayed is 2.5.

Coastal Water Temperatures

Place Temperature

Stations

Nearby Weather Stations

Station Location Temp. Windchill Dew Point Humidity Wind Precip. Elev Updated Type
                   

Watches & Warnings

There are currently no watches in effect.